Tarrytown, New York
Current Conditions -  °F | °C
As of 9:56 AM on Saturday 25 Oct 2014 (Local Time) from KHPN Reporting Station
Clear Clear  
Wind Chill: 54°   Ceiling: Unl
Heat Index: 54°   Visibility: 10mi
Dew Point: 41°   Wind: 5mph
Humidity: 62%   Direction: NA
Pressure: 29.83"   Gusts: NA
Location:  41.08°N, 73.86°W
Report Text: KHPN 251356Z VRB04KT 10SM CLR 12/05 A2983 RMK AO2 SLP102 T01220050
Loading
Personal Weather Stations






























Interactive Weather Map New forecast layout! Learn more

10-Day Weather Forecast

Advertisements
Track Severe Weather on mobile